createdAt,value
2023-04-17T00:00:58.706Z,0.00
2023-04-17T00:01:58.735Z,0.00
2023-04-17T00:02:58.887Z,0.00
2023-04-17T00:03:58.873Z,0.00
2023-04-17T00:04:58.835Z,0.00
2023-04-17T00:05:58.715Z,0.00
2023-04-17T00:06:58.714Z,0.00
2023-04-17T00:07:58.717Z,0.00
2023-04-17T00:08:58.715Z,0.00
2023-04-17T00:09:58.715Z,0.00
2023-04-17T00:11:07.076Z,0.00
2023-04-17T00:11:58.736Z,0.00
2023-04-17T00:12:58.727Z,0.00
2023-04-17T00:13:58.741Z,0.00
2023-04-17T00:14:58.752Z,0.00
2023-04-17T00:15:58.746Z,0.00
2023-04-17T00:16:58.734Z,0.00
2023-04-17T00:17:58.865Z,0.00
2023-04-17T00:18:58.760Z,0.00
2023-04-17T00:19:58.745Z,0.00
2023-04-17T00:20:58.752Z,0.00
2023-04-17T00:21:58.751Z,0.00
2023-04-17T00:22:58.745Z,0.00
2023-04-17T00:23:58.744Z,0.00
2023-04-17T00:24:58.750Z,0.00
2023-04-17T00:25:58.764Z,0.00
2023-04-17T00:26:58.748Z,0.00
2023-04-17T00:27:58.763Z,0.00
2023-04-17T00:28:58.753Z,0.00
2023-04-17T00:29:58.759Z,0.00
2023-04-17T00:30:58.788Z,0.00
2023-04-17T00:31:58.791Z,0.00
2023-04-17T00:32:58.799Z,0.00
2023-04-17T00:33:58.814Z,0.00
2023-04-17T00:34:58.772Z,0.00
2023-04-17T00:35:58.783Z,0.00
2023-04-17T00:36:58.766Z,0.00
2023-04-17T00:37:58.777Z,0.00
2023-04-17T00:38:58.774Z,0.00
2023-04-17T00:39:58.775Z,0.00
2023-04-17T00:40:58.772Z,0.00
2023-04-17T00:41:58.805Z,0.00
2023-04-17T00:42:58.784Z,0.00
2023-04-17T00:43:58.794Z,0.00
2023-04-17T00:44:58.889Z,0.00
2023-04-17T00:45:58.818Z,0.00
2023-04-17T00:46:58.924Z,0.00
2023-04-17T00:47:58.904Z,0.00
2023-04-17T00:48:58.796Z,0.00
2023-04-17T00:49:58.798Z,0.00
2023-04-17T00:50:58.797Z,0.00
2023-04-17T00:51:58.796Z,0.00
2023-04-17T00:52:58.802Z,0.00
2023-04-17T00:53:58.807Z,0.00
2023-04-17T00:54:58.811Z,0.00
2023-04-17T00:55:58.813Z,0.00
2023-04-17T00:56:58.805Z,0.00
2023-04-17T00:57:58.808Z,0.00
2023-04-17T00:58:58.807Z,0.00
2023-04-17T00:59:58.824Z,0.00
2023-04-17T01:00:58.856Z,0.00
2023-04-17T01:01:58.874Z,0.00
2023-04-17T01:02:58.905Z,0.00
2023-04-17T01:03:58.895Z,0.00
2023-04-17T01:04:58.820Z,0.00
2023-04-17T01:05:58.831Z,0.00
2023-04-17T01:06:58.825Z,0.00
2023-04-17T01:07:58.825Z,0.00
2023-04-17T01:08:58.826Z,0.00
2023-04-17T01:09:58.832Z,0.00
2023-04-17T01:10:58.830Z,0.00
2023-04-17T01:11:58.843Z,0.00
2023-04-17T01:12:58.832Z,0.00
2023-04-17T01:13:58.838Z,0.00
2023-04-17T01:14:58.854Z,0.00
2023-04-17T01:15:58.839Z,0.00
2023-04-17T01:16:58.931Z,0.00
2023-04-17T01:17:58.899Z,0.00
2023-04-17T01:18:58.866Z,0.00
2023-04-17T01:19:58.849Z,0.00
2023-04-17T01:20:58.852Z,0.00
2023-04-17T01:21:58.853Z,0.00
2023-04-17T01:22:58.852Z,0.00
2023-04-17T01:23:58.859Z,0.00
2023-04-17T01:24:58.857Z,0.00
2023-04-17T01:25:58.858Z,0.00
2023-04-17T01:26:58.857Z,0.00
2023-04-17T01:27:58.862Z,0.00
2023-04-17T01:28:58.861Z,0.00
2023-04-17T01:29:58.868Z,0.00
2023-04-17T01:30:58.896Z,0.00
2023-04-17T01:31:58.873Z,0.00
2023-04-17T01:32:58.888Z,0.00
2023-04-17T01:33:58.886Z,0.00
2023-04-17T01:34:58.904Z,0.00
2023-04-17T01:35:58.875Z,0.00
2023-04-17T01:36:58.886Z,0.00
2023-04-17T01:37:58.884Z,0.00
2023-04-17T01:38:58.878Z,0.00
2023-04-17T01:39:58.886Z,0.00
2023-04-17T01:40:58.881Z,0.00
2023-04-17T01:41:58.890Z,0.00
2023-04-17T01:42:58.902Z,0.00
2023-04-17T01:43:58.893Z,0.00
2023-04-17T01:44:58.890Z,0.00
2023-04-17T01:45:58.914Z,0.00
2023-04-17T01:46:58.895Z,0.00
2023-04-17T01:47:58.926Z,0.00
2023-04-17T01:48:58.900Z,0.00
2023-04-17T01:49:58.903Z,0.00
2023-04-17T01:50:58.928Z,0.00
2023-04-17T01:51:58.907Z,0.00
2023-04-17T01:52:58.906Z,0.00
2023-04-17T01:53:58.907Z,0.00
2023-04-17T01:54:58.909Z,0.00
2023-04-17T01:55:58.922Z,0.00
2023-04-17T01:56:58.926Z,0.00
2023-04-17T01:57:58.920Z,0.00
2023-04-17T01:58:58.914Z,0.00
2023-04-17T01:59:58.951Z,0.00
2023-04-17T02:00:58.920Z,0.00
2023-04-17T02:01:59.041Z,0.00
2023-04-17T02:02:59.000Z,0.00
2023-04-17T02:03:59.208Z,0.00
2023-04-17T02:04:58.926Z,0.00
2023-04-17T02:05:58.926Z,0.00
2023-04-17T02:06:58.961Z,0.00
2023-04-17T02:07:58.934Z,0.00
2023-04-17T02:08:58.932Z,0.00
2023-04-17T02:09:58.944Z,0.00
2023-04-17T02:10:58.935Z,0.00
2023-04-17T02:11:58.938Z,0.00
2023-04-17T02:12:58.985Z,0.00
2023-04-17T02:13:58.940Z,0.00
2023-04-17T02:14:58.943Z,0.00
2023-04-17T02:15:59.012Z,0.00
2023-04-17T02:16:58.949Z,0.00
2023-04-17T02:17:59.046Z,0.00
2023-04-17T02:18:58.949Z,0.00
2023-04-17T02:19:58.958Z,0.00
2023-04-17T02:20:58.952Z,0.00
2023-04-17T02:21:58.968Z,0.00
2023-04-17T02:22:58.984Z,0.00
2023-04-17T02:23:58.966Z,0.00
2023-04-17T02:24:58.956Z,0.00
2023-04-17T02:25:58.964Z,0.00
2023-04-17T02:26:58.964Z,0.00
2023-04-17T02:27:58.971Z,0.00
2023-04-17T02:28:58.967Z,0.00
2023-04-17T02:29:58.978Z,0.00
2023-04-17T02:30:58.986Z,0.00
2023-04-17T02:31:58.976Z,0.00
2023-04-17T02:32:59.030Z,0.00
2023-04-17T02:33:59.002Z,0.00
2023-04-17T02:34:58.976Z,0.00
2023-04-17T02:35:58.982Z,0.00
2023-04-17T02:36:58.976Z,0.00
2023-04-17T02:37:58.987Z,0.00
2023-04-17T02:38:59.010Z,0.00
2023-04-17T02:39:58.990Z,0.00
2023-04-17T02:40:58.999Z,0.00
2023-04-17T02:41:58.993Z,0.00
2023-04-17T02:42:58.997Z,0.00
2023-04-17T02:43:58.992Z,0.00
2023-04-17T02:44:59.008Z,0.00
2023-04-17T02:45:58.996Z,0.00
2023-04-17T02:46:59.087Z,0.00
2023-04-17T02:47:59.097Z,0.00
2023-04-17T02:48:59.006Z,0.00
2023-04-17T02:49:59.011Z,0.00
2023-04-17T02:50:59.018Z,0.00
2023-04-17T02:51:59.012Z,0.00
2023-04-17T02:52:59.010Z,0.00
2023-04-17T02:53:59.014Z,0.00
2023-04-17T02:54:59.035Z,0.00
2023-04-17T02:55:59.031Z,0.00
2023-04-17T02:56:59.017Z,0.00
2023-04-17T02:57:59.038Z,0.00
2023-04-17T02:58:59.019Z,0.00
2023-04-17T02:59:59.022Z,0.00
2023-04-17T03:00:59.090Z,0.00
2023-04-17T03:01:59.127Z,0.00
2023-04-17T03:02:59.160Z,0.00
2023-04-17T03:03:59.282Z,0.00
2023-04-17T03:04:59.029Z,0.00
2023-04-17T03:05:59.048Z,0.00
2023-04-17T03:06:59.034Z,0.00
2023-04-17T03:07:59.040Z,0.00
2023-04-17T03:08:59.046Z,0.00
2023-04-17T03:09:59.047Z,0.00
2023-04-17T03:10:59.163Z,0.00
2023-04-17T03:11:59.043Z,0.00
2023-04-17T03:12:59.052Z,0.00
2023-04-17T03:13:59.050Z,0.00
2023-04-17T03:14:59.054Z,0.00
2023-04-17T03:15:59.117Z,0.00
2023-04-17T03:16:59.092Z,0.00
2023-04-17T03:17:59.120Z,0.00
2023-04-17T03:18:59.053Z,0.00
2023-04-17T03:19:59.060Z,0.00
2023-04-17T03:20:59.063Z,0.00
2023-04-17T03:21:59.064Z,0.00
2023-04-17T03:22:59.085Z,0.00
2023-04-17T03:23:59.068Z,0.00
2023-04-17T03:24:59.065Z,0.00
2023-04-17T03:25:59.065Z,0.00
2023-04-17T03:26:59.101Z,0.00
2023-04-17T03:27:59.092Z,0.00
2023-04-17T03:28:59.072Z,0.00
2023-04-17T03:29:59.079Z,0.00
2023-04-17T03:30:59.079Z,0.00
2023-04-17T03:31:59.115Z,0.00
2023-04-17T03:32:59.124Z,0.00
2023-04-17T03:33:59.082Z,0.00
2023-04-17T03:34:59.082Z,0.00
2023-04-17T03:35:59.084Z,0.00
2023-04-17T03:36:59.098Z,0.00
2023-04-17T03:37:59.091Z,0.00
2023-04-17T03:38:59.089Z,0.00
2023-04-17T03:39:59.099Z,0.00
2023-04-17T03:40:59.091Z,0.00
2023-04-17T03:41:59.112Z,0.00
2023-04-17T03:42:59.122Z,0.00
2023-04-17T03:43:59.109Z,0.00
2023-04-17T03:44:59.106Z,0.00
2023-04-17T03:45:59.168Z,0.00
2023-04-17T03:46:59.102Z,0.00
2023-04-17T03:47:59.159Z,0.00
2023-04-17T03:48:59.106Z,0.00
2023-04-17T03:49:59.162Z,0.00
2023-04-17T03:50:59.110Z,0.00
2023-04-17T03:51:59.113Z,0.00
2023-04-17T03:52:59.116Z,0.00
2023-04-17T03:53:59.113Z,0.00
2023-04-17T03:54:59.124Z,0.00
2023-04-17T03:55:59.124Z,0.00
2023-04-17T03:56:59.117Z,0.00
2023-04-17T03:57:59.121Z,0.00
2023-04-17T03:58:59.208Z,0.00
2023-04-17T03:59:59.121Z,0.00
2023-04-17T04:00:59.127Z,0.00
2023-04-17T04:01:59.201Z,0.00
2023-04-17T04:02:59.222Z,0.00
2023-04-17T04:03:59.246Z,0.00
2023-04-17T04:04:59.188Z,0.00
2023-04-17T04:05:59.131Z,0.00
2023-04-17T04:06:59.131Z,0.00
2023-04-17T04:07:59.134Z,0.00
2023-04-17T04:08:59.133Z,0.00
2023-04-17T04:09:59.132Z,0.00
2023-04-17T04:10:59.138Z,0.00
2023-04-17T04:11:59.142Z,0.00
2023-04-17T04:12:59.144Z,0.00
2023-04-17T04:13:59.138Z,0.00
2023-04-17T04:14:59.164Z,0.00
2023-04-17T04:15:59.222Z,0.00
2023-04-17T04:16:59.152Z,0.00
2023-04-17T04:17:59.150Z,0.00
2023-04-17T04:18:59.147Z,0.00
2023-04-17T04:19:59.150Z,0.00
2023-04-17T04:20:59.153Z,0.00
2023-04-17T04:21:59.151Z,0.00
2023-04-17T04:22:59.163Z,0.00
2023-04-17T04:23:59.153Z,0.00
2023-04-17T04:24:59.173Z,0.00
2023-04-17T04:25:59.158Z,0.00
2023-04-17T04:26:59.161Z,0.00
2023-04-17T04:27:59.163Z,0.00
2023-04-17T04:28:59.160Z,0.00
2023-04-17T04:29:59.174Z,0.00
2023-04-17T04:30:59.240Z,0.00
2023-04-17T04:31:59.319Z,0.00
2023-04-17T04:32:59.185Z,0.00
2023-04-17T04:33:59.193Z,0.00
2023-04-17T04:34:59.175Z,0.00
2023-04-17T04:35:59.171Z,0.00
2023-04-17T04:36:59.174Z,0.00
2023-04-17T04:37:59.178Z,0.00
2023-04-17T04:38:59.188Z,0.00
2023-04-17T04:39:59.180Z,0.00
2023-04-17T04:40:59.183Z,0.00
2023-04-17T04:41:59.195Z,0.00
2023-04-17T04:42:59.188Z,0.00
2023-04-17T04:43:59.198Z,0.00
2023-04-17T04:44:59.205Z,0.00
2023-04-17T04:45:59.343Z,0.00
2023-04-17T04:46:59.287Z,0.00
2023-04-17T04:47:59.250Z,0.00
2023-04-17T04:48:59.208Z,0.00
2023-04-17T04:49:59.204Z,0.00
2023-04-17T04:50:59.352Z,0.00
2023-04-17T04:51:59.200Z,5.63
2023-04-17T04:52:59.206Z,5.63
2023-04-17T04:53:59.206Z,5.63
2023-04-17T04:54:59.213Z,5.63
2023-04-17T04:55:59.213Z,5.63
2023-04-17T04:56:59.217Z,5.63
2023-04-17T04:57:59.218Z,5.63
2023-04-17T04:58:59.232Z,5.63
2023-04-17T04:59:59.215Z,5.63
2023-04-17T05:00:59.242Z,5.63
2023-04-17T05:01:59.305Z,5.63
2023-04-17T05:02:59.503Z,5.63
2023-04-17T05:03:59.418Z,5.63
2023-04-17T05:04:59.271Z,5.63
2023-04-17T05:05:59.231Z,5.63
2023-04-17T05:06:59.238Z,5.63
2023-04-17T05:07:59.236Z,5.63
2023-04-17T05:08:59.237Z,5.63
2023-04-17T05:09:59.228Z,5.63
2023-04-17T05:10:59.250Z,5.63
2023-04-17T05:11:59.239Z,5.63
2023-04-17T05:12:59.244Z,5.63
2023-04-17T05:13:59.245Z,5.63
2023-04-17T05:14:59.261Z,5.63
2023-04-17T05:16:01.331Z,5.63
2023-04-17T05:16:59.266Z,5.63
2023-04-17T05:17:59.318Z,5.63
2023-04-17T05:18:59.280Z,5.63
2023-04-17T05:19:59.255Z,5.63
2023-04-17T05:20:59.272Z,5.63
2023-04-17T05:21:59.284Z,5.63
2023-04-17T05:22:59.265Z,5.63
2023-04-17T05:23:59.260Z,5.63
2023-04-17T05:24:59.263Z,5.63
2023-04-17T05:25:59.276Z,5.63
2023-04-17T05:26:59.262Z,5.63
2023-04-17T05:27:59.271Z,5.63
2023-04-17T05:28:59.270Z,5.63
2023-04-17T05:29:59.277Z,5.63
2023-04-17T05:30:59.323Z,5.63
2023-04-17T05:31:59.337Z,5.63
2023-04-17T05:32:59.306Z,5.63
2023-04-17T05:33:59.275Z,5.63
2023-04-17T05:34:59.306Z,5.63
2023-04-17T05:35:59.433Z,5.63
2023-04-17T05:36:59.290Z,5.63
2023-04-17T05:37:59.276Z,5.63
2023-04-17T05:38:59.285Z,5.63
2023-04-17T05:39:59.284Z,5.63
2023-04-17T05:40:59.285Z,5.63
2023-04-17T05:41:59.289Z,5.63
2023-04-17T05:42:59.298Z,5.63
2023-04-17T05:43:59.293Z,5.63
2023-04-17T05:44:59.291Z,5.63
2023-04-17T05:45:59.338Z,5.63
2023-04-17T05:46:59.298Z,5.63
2023-04-17T05:47:59.327Z,5.63
2023-04-17T05:48:59.309Z,5.63
2023-04-17T05:49:59.307Z,5.63
2023-04-17T05:50:59.346Z,5.63
2023-04-17T05:51:59.304Z,5.63
2023-04-17T05:52:59.301Z,5.63
2023-04-17T05:53:59.310Z,5.63
2023-04-17T05:54:59.307Z,5.63
2023-04-17T05:55:59.314Z,5.63
2023-04-17T05:56:59.311Z,5.63
2023-04-17T05:57:59.324Z,5.63
2023-04-17T05:58:59.332Z,5.63
2023-04-17T05:59:59.315Z,5.63
2023-04-17T06:00:59.326Z,5.63
2023-04-17T06:01:59.511Z,5.63
2023-04-17T06:02:59.490Z,5.63
2023-04-17T06:04:00.427Z,5.63
2023-04-17T06:04:59.588Z,5.63
2023-04-17T06:05:59.377Z,5.63
2023-04-17T06:06:59.354Z,5.63
2023-04-17T06:07:59.337Z,5.63
2023-04-17T06:08:59.339Z,5.63
2023-04-17T06:09:59.348Z,5.63
2023-04-17T06:10:59.346Z,5.63
2023-04-17T06:11:59.344Z,5.63
2023-04-17T06:12:59.351Z,5.63
2023-04-17T06:13:59.346Z,5.63
2023-04-17T06:14:59.345Z,5.63
2023-04-17T06:15:59.347Z,11.25
2023-04-17T06:16:59.378Z,11.25
2023-04-17T06:17:59.460Z,11.25
2023-04-17T06:18:59.349Z,11.25
2023-04-17T06:19:59.362Z,11.25
2023-04-17T06:20:59.365Z,11.25
2023-04-17T06:21:59.357Z,11.25
2023-04-17T06:22:59.383Z,11.25
2023-04-17T06:23:59.369Z,11.25
2023-04-17T06:24:59.368Z,11.25
2023-04-17T06:25:59.368Z,11.25
2023-04-17T06:26:59.371Z,11.25
2023-04-17T06:27:59.383Z,11.25
2023-04-17T06:28:59.367Z,11.25
2023-04-17T06:29:59.367Z,11.25
2023-04-17T06:30:59.431Z,11.25
2023-04-17T06:31:59.372Z,11.25
2023-04-17T06:32:59.400Z,11.25
2023-04-17T06:33:59.379Z,11.25
2023-04-17T06:34:59.910Z,11.25
2023-04-17T06:35:59.377Z,11.25
2023-04-17T06:36:59.381Z,11.25
2023-04-17T06:37:59.376Z,11.25
2023-04-17T06:38:59.405Z,11.25
2023-04-17T06:39:59.381Z,11.25
2023-04-17T06:40:59.393Z,11.25
2023-04-17T06:41:59.400Z,11.25
2023-04-17T06:42:59.385Z,11.25
2023-04-17T06:43:59.389Z,11.25
2023-04-17T06:44:59.387Z,11.25
2023-04-17T06:45:59.413Z,11.25
2023-04-17T06:47:01.074Z,11.25
2023-04-17T06:47:59.447Z,11.25
2023-04-17T06:48:59.399Z,11.25
2023-04-17T06:49:59.393Z,11.25
2023-04-17T06:50:59.390Z,11.25
2023-04-17T06:51:59.393Z,11.25
2023-04-17T06:52:59.397Z,11.25
2023-04-17T06:53:59.389Z,11.25
2023-04-17T06:54:59.441Z,11.25
2023-04-17T06:55:59.394Z,11.25
2023-04-17T06:56:59.396Z,11.25
2023-04-17T06:57:59.395Z,11.25
2023-04-17T06:59:00.781Z,11.25
2023-04-17T06:59:59.406Z,11.25
2023-04-17T07:00:59.395Z,11.25
2023-04-17T07:01:59.500Z,11.25
2023-04-17T07:02:59.458Z,11.25
2023-04-17T07:03:59.521Z,11.25
2023-04-17T07:04:59.468Z,11.25
2023-04-17T07:05:59.403Z,11.25
2023-04-17T07:06:59.414Z,11.25
2023-04-17T07:07:59.402Z,11.25
2023-04-17T07:08:59.404Z,11.25
2023-04-17T07:09:59.400Z,11.25
2023-04-17T07:10:59.578Z,11.25
2023-04-17T07:11:59.410Z,11.25
2023-04-17T07:12:59.437Z,11.25
2023-04-17T07:13:59.422Z,11.25
2023-04-17T07:14:59.405Z,11.25
2023-04-17T07:15:59.452Z,11.25
2023-04-17T07:16:59.405Z,11.25
2023-04-17T07:17:59.476Z,11.25
2023-04-17T07:18:59.405Z,11.25
2023-04-17T07:19:59.421Z,11.25
2023-04-17T07:20:59.470Z,11.25
2023-04-17T07:21:59.411Z,11.25
2023-04-17T07:22:59.423Z,11.25
2023-04-17T07:23:59.434Z,11.25
2023-04-17T07:24:59.415Z,11.25
2023-04-17T07:25:59.412Z,11.25
2023-04-17T07:26:59.438Z,11.25
2023-04-17T07:27:59.416Z,11.25
2023-04-17T07:28:59.415Z,11.25
2023-04-17T07:29:59.413Z,16.88
2023-04-17T07:30:59.425Z,16.88
2023-04-17T07:31:59.512Z,16.88
2023-04-17T07:32:59.442Z,16.88
2023-04-17T07:33:59.418Z,16.88
2023-04-17T07:34:59.425Z,16.88
2023-04-17T07:35:59.426Z,16.88
2023-04-17T07:36:59.445Z,16.88
2023-04-17T07:37:59.427Z,16.88
2023-04-17T07:38:59.440Z,16.88
2023-04-17T07:39:59.427Z,16.88
2023-04-17T07:40:59.430Z,16.88
2023-04-17T07:41:59.443Z,16.88
2023-04-17T07:42:59.546Z,16.88
2023-04-17T07:43:59.434Z,16.88
2023-04-17T07:44:59.452Z,16.88
2023-04-17T07:45:59.434Z,16.88
2023-04-17T07:46:59.473Z,16.88
2023-04-17T07:47:59.466Z,16.88
2023-04-17T07:48:59.443Z,16.88
2023-04-17T07:49:59.437Z,16.88
2023-04-17T07:50:59.457Z,16.88
2023-04-17T07:51:59.468Z,16.88
2023-04-17T07:52:59.463Z,16.88
2023-04-17T07:53:59.445Z,16.88
2023-04-17T07:54:59.445Z,16.88
2023-04-17T07:55:59.445Z,22.50
2023-04-17T07:56:59.446Z,22.50
2023-04-17T07:57:59.452Z,22.50
2023-04-17T07:58:59.902Z,22.50
2023-04-17T07:59:59.450Z,22.50
2023-04-17T08:00:59.454Z,22.50
2023-04-17T08:01:59.516Z,22.50
2023-04-17T08:02:59.604Z,22.50
2023-04-17T08:03:59.854Z,22.50
2023-04-17T08:04:59.513Z,22.50
2023-04-17T08:05:59.453Z,22.50
2023-04-17T08:06:59.462Z,22.50
2023-04-17T08:07:59.461Z,22.50
2023-04-17T08:08:59.469Z,22.50
2023-04-17T08:09:59.464Z,22.50
2023-04-17T08:10:59.515Z,22.50
2023-04-17T08:11:59.471Z,22.50
2023-04-17T08:12:59.475Z,28.13
2023-04-17T08:13:59.476Z,28.13
2023-04-17T08:14:59.537Z,28.13
2023-04-17T08:15:59.558Z,28.13
2023-04-17T08:16:59.581Z,28.13
2023-04-17T08:17:59.586Z,28.13
2023-04-17T08:18:59.478Z,28.13
2023-04-17T08:19:59.482Z,28.13
2023-04-17T08:20:59.483Z,28.13
2023-04-17T08:21:59.483Z,28.13
2023-04-17T08:22:59.486Z,28.13
2023-04-17T08:23:59.482Z,28.13
2023-04-17T08:24:59.489Z,28.13
2023-04-17T08:25:59.491Z,33.75
2023-04-17T08:26:59.496Z,33.75
2023-04-17T08:27:59.491Z,33.75
2023-04-17T08:28:59.499Z,33.75
2023-04-17T08:29:59.497Z,33.75
2023-04-17T08:30:59.618Z,33.75
2023-04-17T08:32:13.119Z,33.75
2023-04-17T08:32:59.529Z,33.75
2023-04-17T08:34:10.429Z,33.75
2023-04-17T08:34:59.505Z,33.75
2023-04-17T08:36:00.809Z,33.75
2023-04-17T08:36:59.501Z,33.75
2023-04-17T08:37:59.510Z,39.38
2023-04-17T08:38:59.514Z,39.38
2023-04-17T08:39:59.512Z,39.38
2023-04-17T08:40:59.518Z,39.38
2023-04-17T08:41:59.518Z,39.38
2023-04-17T08:42:59.524Z,39.38
2023-04-17T08:43:59.524Z,39.38
2023-04-17T08:44:59.528Z,39.38
2023-04-17T08:45:59.531Z,39.38
2023-04-17T08:46:59.554Z,39.38
2023-04-17T08:47:59.599Z,45.00
2023-04-17T08:48:59.529Z,45.00
2023-04-17T08:49:59.527Z,45.00
2023-04-17T08:50:59.531Z,45.00
2023-04-17T08:51:59.543Z,45.00
2023-04-17T08:52:59.543Z,45.00
2023-04-17T08:53:59.539Z,45.00
2023-04-17T08:54:59.541Z,45.00
2023-04-17T08:56:00.578Z,45.00
2023-04-17T08:56:59.541Z,45.00
2023-04-17T08:57:59.595Z,50.63
2023-04-17T08:58:59.560Z,50.63
2023-04-17T08:59:59.559Z,50.63
2023-04-17T09:00:59.550Z,50.63
2023-04-17T09:01:59.734Z,50.63
2023-04-17T09:02:59.691Z,50.63
2023-04-17T09:03:59.759Z,50.63
2023-04-17T09:04:59.908Z,50.63
2023-04-17T09:05:59.563Z,50.63
2023-04-17T09:06:59.563Z,56.25
2023-04-17T09:07:59.563Z,56.25
2023-04-17T09:08:59.587Z,56.25
2023-04-17T09:09:59.571Z,56.25
2023-04-17T09:10:59.575Z,56.25
2023-04-17T09:11:59.573Z,56.25
2023-04-17T09:12:59.580Z,56.25
2023-04-17T09:13:59.577Z,61.88
2023-04-17T09:14:59.582Z,61.88
2023-04-17T09:15:59.588Z,61.88
2023-04-17T09:16:59.575Z,61.88
2023-04-17T09:17:59.606Z,61.88
2023-04-17T09:18:59.611Z,61.88
2023-04-17T09:19:59.589Z,61.88
2023-04-17T09:20:59.586Z,61.88
2023-04-17T09:21:59.593Z,67.50
2023-04-17T09:22:59.595Z,67.50
2023-04-17T09:23:59.592Z,67.50
2023-04-17T09:24:59.594Z,67.50
2023-04-17T09:25:59.601Z,78.75
2023-04-17T09:26:59.599Z,78.75
2023-04-17T09:27:59.610Z,73.13
2023-04-17T09:28:59.602Z,67.50
2023-04-17T09:29:59.621Z,67.50
2023-04-17T09:30:59.636Z,67.50
2023-04-17T09:31:59.751Z,73.13
2023-04-17T09:32:59.654Z,73.13
2023-04-17T09:33:59.617Z,73.13
2023-04-17T09:34:59.644Z,73.13
2023-04-17T09:35:59.630Z,73.13
2023-04-17T09:36:59.623Z,73.13
2023-04-17T09:37:59.621Z,78.75
2023-04-17T09:38:59.633Z,78.75
2023-04-17T09:39:59.673Z,84.38
2023-04-17T09:40:59.881Z,90.00
2023-04-17T09:42:01.715Z,106.88
2023-04-17T09:42:59.640Z,500.63
2023-04-17T09:43:59.636Z,2075.63
2023-04-17T09:44:59.637Z,2688.75
2023-04-17T09:45:59.794Z,2705.63
2023-04-17T09:46:59.748Z,2688.75
2023-04-17T09:47:59.691Z,2756.25
2023-04-17T09:48:59.647Z,2143.13
2023-04-17T09:49:59.655Z,860.63
2023-04-17T09:50:59.693Z,202.50
2023-04-17T09:51:59.670Z,146.25
2023-04-17T09:52:59.659Z,123.75
2023-04-17T09:53:59.669Z,112.50
2023-04-17T09:54:59.675Z,101.25
2023-04-17T09:55:59.680Z,101.25
2023-04-17T09:56:59.681Z,101.25
2023-04-17T09:57:59.675Z,95.63
2023-04-17T09:58:59.674Z,95.63
2023-04-17T09:59:59.681Z,95.63
2023-04-17T10:00:59.696Z,95.63
2023-04-17T10:01:59.766Z,95.63
2023-04-17T10:02:59.840Z,95.63
2023-04-17T10:04:00.034Z,95.63
2023-04-17T10:04:59.699Z,95.63
2023-04-17T10:07:00.051Z,95.63
2023-04-17T10:07:59.734Z,95.63
2023-04-17T10:08:59.713Z,95.63
2023-04-17T10:09:59.700Z,90.00
2023-04-17T10:10:59.703Z,90.00
2023-04-17T10:11:59.704Z,90.00
2023-04-17T10:12:59.705Z,90.00
2023-04-17T10:13:59.706Z,84.38
2023-04-17T10:14:59.712Z,84.38
2023-04-17T10:15:59.749Z,84.38
2023-04-17T10:16:59.729Z,78.75
2023-04-17T10:17:59.769Z,78.75
2023-04-17T10:18:59.720Z,78.75
2023-04-17T10:19:59.728Z,73.13
2023-04-17T10:20:59.736Z,67.50
2023-04-17T10:21:59.727Z,67.50
2023-04-17T10:22:59.753Z,67.50
2023-04-17T10:23:59.734Z,67.50
2023-04-17T10:24:59.733Z,61.88
2023-04-17T10:25:59.739Z,61.88
2023-04-17T10:26:59.743Z,56.25
2023-04-17T10:27:59.752Z,56.25
2023-04-17T10:28:59.745Z,50.63
2023-04-17T10:29:59.781Z,50.63
2023-04-17T10:30:59.752Z,50.63
2023-04-17T10:31:59.781Z,50.63
2023-04-17T10:32:59.785Z,50.63
2023-04-17T10:33:59.765Z,45.00
2023-04-17T10:34:59.763Z,45.00
2023-04-17T10:35:59.764Z,45.00
2023-04-17T10:36:59.760Z,45.00
2023-04-17T10:37:59.769Z,45.00
2023-04-17T10:38:59.792Z,45.00
2023-04-17T10:39:59.792Z,45.00
2023-04-17T10:41:00.186Z,45.00
2023-04-17T10:41:59.769Z,45.00
2023-04-17T10:42:59.772Z,45.00
2023-04-17T10:43:59.773Z,45.00
2023-04-17T10:44:59.787Z,45.00
2023-04-17T10:45:59.846Z,45.00
2023-04-17T10:46:59.788Z,45.00
2023-04-17T10:47:59.848Z,45.00
2023-04-17T10:48:59.788Z,45.00
2023-04-17T10:49:59.785Z,45.00
2023-04-17T10:50:59.793Z,45.00
2023-04-17T10:51:59.789Z,45.00
2023-04-17T10:52:59.795Z,45.00
2023-04-17T10:53:59.797Z,45.00
2023-04-17T10:54:59.938Z,45.00
2023-04-17T10:55:59.803Z,45.00
2023-04-17T10:56:59.805Z,45.00
2023-04-17T10:57:59.820Z,45.00
2023-04-17T10:58:59.807Z,45.00
2023-04-17T10:59:59.810Z,45.00
2023-04-17T11:00:59.848Z,45.00
2023-04-17T11:01:59.951Z,45.00
2023-04-17T11:02:59.903Z,45.00
2023-04-17T11:04:00.017Z,45.00
2023-04-17T11:04:59.848Z,45.00
2023-04-17T11:05:59.822Z,45.00
2023-04-17T11:06:59.821Z,45.00
2023-04-17T11:07:59.833Z,45.00
2023-04-17T11:08:59.842Z,45.00
2023-04-17T11:09:59.833Z,45.00
2023-04-17T11:10:59.871Z,45.00
2023-04-17T11:11:59.840Z,45.00
2023-04-17T11:12:59.847Z,45.00
2023-04-17T11:13:59.846Z,45.00
2023-04-17T11:14:59.842Z,45.00
2023-04-17T11:15:59.846Z,45.00
2023-04-17T11:16:59.933Z,45.00
2023-04-17T11:17:59.879Z,45.00
2023-04-17T11:18:59.859Z,45.00
2023-04-17T11:19:59.850Z,45.00
2023-04-17T11:20:59.850Z,45.00
2023-04-17T11:21:59.901Z,45.00
2023-04-17T11:22:59.859Z,45.00
2023-04-17T11:23:59.857Z,45.00
2023-04-17T11:24:59.865Z,45.00
2023-04-17T11:25:59.864Z,45.00
2023-04-17T11:27:00.044Z,45.00
2023-04-17T11:27:59.868Z,45.00
2023-04-17T11:28:59.875Z,45.00
2023-04-17T11:29:59.876Z,39.38
2023-04-17T11:30:59.963Z,39.38
2023-04-17T11:31:59.876Z,39.38
2023-04-17T11:32:59.942Z,39.38
2023-04-17T11:33:59.883Z,39.38
2023-04-17T11:34:59.897Z,39.38
2023-04-17T11:35:59.885Z,39.38
2023-04-17T11:36:59.899Z,39.38
2023-04-17T11:37:59.889Z,39.38
2023-04-17T11:38:59.899Z,39.38
2023-04-17T11:39:59.894Z,39.38
2023-04-17T11:40:59.898Z,39.38
2023-04-17T11:41:59.900Z,39.38
2023-04-17T11:42:59.936Z,39.38
2023-04-17T11:43:59.903Z,39.38
2023-04-17T11:45:00.536Z,39.38
2023-04-17T11:45:59.956Z,39.38
2023-04-17T11:46:59.931Z,39.38
2023-04-17T11:48:00.009Z,39.38
2023-04-17T11:48:59.913Z,39.38
2023-04-17T11:49:59.917Z,39.38
2023-04-17T11:50:59.920Z,39.38
2023-04-17T11:51:59.918Z,39.38
2023-04-17T11:52:59.923Z,39.38
2023-04-17T11:53:59.943Z,39.38
2023-04-17T11:54:59.921Z,39.38
2023-04-17T11:55:59.924Z,39.38
2023-04-17T11:56:59.921Z,33.75
2023-04-17T11:57:59.926Z,33.75
2023-04-17T11:58:59.961Z,33.75
2023-04-17T11:59:59.940Z,33.75
2023-04-17T12:00:59.934Z,33.75
2023-04-17T12:02:00.092Z,33.75
2023-04-17T12:03:00.102Z,33.75
2023-04-17T12:04:00.292Z,33.75
2023-04-17T12:05:00.140Z,33.75
2023-04-17T12:05:59.975Z,33.75
2023-04-17T12:06:59.972Z,33.75
2023-04-17T12:07:59.942Z,33.75
2023-04-17T12:08:59.955Z,33.75
2023-04-17T12:09:59.951Z,33.75
2023-04-17T12:10:59.955Z,33.75
2023-04-17T12:11:59.955Z,33.75
2023-04-17T12:12:59.958Z,33.75
2023-04-17T12:13:59.958Z,33.75
2023-04-17T12:14:59.992Z,33.75
2023-04-17T12:15:59.988Z,33.75
2023-04-17T12:16:59.961Z,33.75
2023-04-17T12:17:59.970Z,33.75
2023-04-17T12:18:59.967Z,33.75
2023-04-17T12:19:59.966Z,33.75
2023-04-17T12:20:59.967Z,33.75
2023-04-17T12:21:59.983Z,33.75
2023-04-17T12:22:59.971Z,33.75
2023-04-17T12:23:59.974Z,33.75
2023-04-17T12:24:59.968Z,33.75
2023-04-17T12:25:59.974Z,33.75
2023-04-17T12:26:59.976Z,33.75
2023-04-17T12:27:59.984Z,33.75
2023-04-17T12:28:59.988Z,28.13
2023-04-17T12:30:00.011Z,28.13
2023-04-17T12:31:00.027Z,28.13
2023-04-17T12:32:00.048Z,28.13
2023-04-17T12:33:00.053Z,28.13
2023-04-17T12:33:59.997Z,28.13
2023-04-17T12:35:00.008Z,28.13
2023-04-17T12:36:00.029Z,28.13
2023-04-17T12:37:00.053Z,28.13
2023-04-17T12:38:00.006Z,28.13
2023-04-17T12:39:00.000Z,28.13
2023-04-17T12:39:59.998Z,28.13
2023-04-17T12:41:00.002Z,28.13
2023-04-17T12:42:00.008Z,28.13
2023-04-17T12:43:00.006Z,28.13
2023-04-17T12:44:00.036Z,28.13
2023-04-17T12:45:00.020Z,22.50
2023-04-17T12:46:00.040Z,22.50
2023-04-17T12:47:00.039Z,22.50
2023-04-17T12:48:00.100Z,22.50
2023-04-17T12:49:00.022Z,22.50
2023-04-17T12:50:00.040Z,22.50
2023-04-17T12:51:00.036Z,22.50
2023-04-17T12:52:02.478Z,22.50
2023-04-17T12:53:00.024Z,22.50
2023-04-17T12:54:00.051Z,22.50
2023-04-17T12:55:00.075Z,22.50
2023-04-17T12:56:00.042Z,22.50
2023-04-17T12:57:00.048Z,22.50
2023-04-17T12:58:00.080Z,22.50
2023-04-17T12:59:02.696Z,22.50
2023-04-17T13:00:00.090Z,16.88
2023-04-17T13:01:00.092Z,16.88
2023-04-17T13:02:00.159Z,16.88
2023-04-17T13:03:00.220Z,16.88
2023-04-17T13:04:00.331Z,16.88
2023-04-17T13:05:00.049Z,16.88
2023-04-17T13:06:00.070Z,16.88